Time;durP1;ratioP1;P1;durP2;ratioP2;P2;SDS_P1;SDS_P2;PMS_P1;PMS_P2;Temp;Humidity;BMP_temperature;BMP_pressure;BME280_temperature;BME280_humidity;BME280_pressure;Samples;Min_cycle;Max_cycle;Signal;HPM_P1;HPM_P2
2020/12/16 00:01:32;;;;;;;43.55;30.35;;;;;;;16.92;33.45;95115.56;5096616;28;20062;-40
2020/12/16 00:03:59;;;;;;;45.67;30.65;;;;;;;16.77;33.60;95099.38;5085027;28;20474;-40
2020/12/16 00:06:26;;;;;;;45.70;32.80;;;;;;;16.75;33.89;95107.59;5078938;28;20048;-40
2020/12/16 00:08:53;;;;;;;45.17;30.40;;;;;;;16.99;33.17;95115.13;5089749;28;20048;-41
2020/12/16 00:11:20;;;;;;;42.58;29.52;;;;;;;17.27;32.39;95111.09;5075092;28;20040;-40
2020/12/16 00:13:48;;;;;;;41.60;28.73;;;;;;;16.88;33.37;95105.91;5076135;28;20489;-40
2020/12/16 00:16:15;;;;;;;39.80;28.83;;;;;;;16.99;33.10;95115.13;5075978;28;20055;-40
2020/12/16 00:18:43;;;;;;;42.78;29.90;;;;;;;17.39;32.71;95117.63;5095946;28;20051;-40
2020/12/16 00:21:10;;;;;;;44.30;31.02;;;;;;;16.67;34.08;95110.22;5096171;28;20060;-39
2020/12/16 00:23:37;;;;;;;41.90;29.67;;;;;;;16.65;34.10;95107.81;5096544;28;20040;-40
2020/12/16 00:26:04;;;;;;;40.22;28.58;;;;;;;16.63;34.02;95112.63;5096073;28;20332;-40
2020/12/16 00:28:31;;;;;;;44.20;30.15;;;;;;;17.21;33.49;95111.56;5095820;28;20051;-41
2020/12/16 00:30:59;;;;;;;43.28;30.13;;;;;;;17.04;33.35;95106.25;5095375;28;20048;-40
2020/12/16 00:33:26;;;;;;;41.72;28.98;;;;;;;16.75;33.83;95114.75;5095581;28;20044;-41
2020/12/16 00:35:53;;;;;;;43.00;31.00;;;;;;;16.67;34.01;95107.59;5095114;28;20055;-41
2020/12/16 00:38:20;;;;;;;41.22;30.23;;;;;;;17.24;33.24;95114.38;5094431;28;20048;-40
2020/12/16 00:40:47;;;;;;;46.83;32.88;;;;;;;17.43;33.21;95098.19;5095470;28;20047;-40
2020/12/16 00:43:14;;;;;;;48.70;34.67;;;;;;;16.90;33.77;95096.59;5095693;28;20036;-41
2020/12/16 00:45:41;;;;;;;45.75;32.28;;;;;;;16.83;33.84;95095.50;5094509;28;20336;-40
2020/12/16 00:48:08;;;;;;;42.72;30.45;;;;;;;17.56;32.38;95096.50;5090602;28;20359;-40
2020/12/16 00:50:35;;;;;;;40.33;30.35;;;;;;;17.12;33.35;95100.19;5074831;28;20052;-40
2020/12/16 00:53:06;;;;;;;39.80;29.65;;;;;;;17.83;32.37;95095.41;5057341;28;20055;-40
2020/12/16 00:55:42;;;;;;;40.38;29.40;;;;;;;16.97;33.63;95096.16;5057095;28;20045;-41
2020/12/16 00:58:14;;;;;;;41.53;28.73;;;;;;;16.78;34.15;95099.06;5077787;28;20362;-40
2020/12/16 01:00:44;;;;;;;39.75;28.35;;;;;;;16.83;34.17;95098.13;5077480;28;20043;-40
2020/12/16 01:03:12;;;;;;;39.53;29.27;;;;;;;16.85;33.96;95099.38;5077123;28;20055;-40
2020/12/16 01:05:39;;;;;;;35.63;27.85;;;;;;;16.76;34.28;95095.94;5057996;28;20060;-40
2020/12/16 01:08:06;;;;;;;42.53;29.38;;;;;;;16.68;34.53;95091.44;5073779;28;20051;-40
2020/12/16 01:10:33;;;;;;;37.60;27.88;;;;;;;17.36;32.92;95097.13;5077287;28;20051;-40
2020/12/16 01:13:02;;;;;;;37.45;28.85;;;;;;;17.76;32.47;95095.88;5091298;28;20115;-40
2020/12/16 01:15:32;;;;;;;36.38;29.13;;;;;;;18.24;31.75;95089.56;5057140;28;20052;-40
2020/12/16 01:18:04;;;;;;;37.90;30.20;;;;;;;18.19;31.59;95093.13;5057022;28;20053;-40
2020/12/16 01:20:37;;;;;;;;;;;;;;;17.55;33.18;95094.94;5077752;28;20358;-40
2020/12/16 01:23:04;;;;;;;38.85;29.05;;;;;;;17.41;33.17;95096.94;5077987;28;19920;-40
2020/12/16 01:25:33;;;;;;;39.95;29.50;;;;;;;17.62;32.42;95091.81;5077685;28;20047;-40
2020/12/16 01:28:04;;;;;;;38.28;29.02;;;;;;;18.03;32.00;95086.03;5077274;28;20051;-40
2020/12/16 01:30:38;;;;;;;38.47;29.00;;;;;;;18.27;31.46;95091.56;5067554;28;20379;-40
2020/12/16 01:33:05;;;;;;;39.83;30.02;;;;;;;17.36;33.07;95083.91;5057515;28;20051;-40
2020/12/16 01:35:34;;;;;;;39.45;29.95;;;;;;;16.99;33.92;95088.69;5057187;28;20047;-39
2020/12/16 01:38:01;;;;;;;39.70;30.20;;;;;;;16.81;34.27;95087.09;5072571;28;20048;-40
2020/12/16 01:40:35;;;;;;;40.67;29.70;;;;;;;16.72;34.50;95091.59;5077243;28;20048;-40
2020/12/16 01:43:02;;;;;;;39.35;29.10;;;;;;;16.89;34.31;95094.25;5078959;28;20052;-41
2020/12/16 01:45:29;;;;;;;39.97;30.02;;;;;;;16.54;34.89;95088.88;5081349;28;20044;-40
2020/12/16 01:47:58;;;;;;;39.80;29.75;;;;;;;16.64;34.67;95088.56;5081102;28;20051;-40
2020/12/16 01:50:26;;;;;;;40.58;29.95;;;;;;;17.22;33.90;95086.72;5099286;28;20052;-40
2020/12/16 01:52:57;;;;;;;43.80;29.73;;;;;;;17.36;33.63;95094.47;5081175;28;20344;-40
2020/12/16 01:55:39;;;;;;;39.80;28.90;;;;;;;17.90;32.63;95092.28;5066532;28;20040;-40
2020/12/16 01:58:17;;;;;;;40.95;30.15;;;;;;;17.43;33.09;95092.91;5102729;28;20073;-40
2020/12/16 02:00:46;;;;;;;40.25;28.90;;;;;;;18.53;31.34;95085.41;5084628;28;20059;-40
2020/12/16 02:03:17;;;;;;;41.85;28.17;;;;;;;18.29;31.42;95084.09;5084182;28;20043;-39
2020/12/16 02:05:58;;;;;;;40.15;29.52;;;;;;;19.04;30.57;95079.84;5100006;28;20062;-40
2020/12/16 02:08:27;;;;;;;39.90;30.35;;;;;;;17.72;32.71;95081.75;5068786;28;20044;-41
2020/12/16 02:10:56;;;;;;;40.78;29.17;;;;;;;17.61;32.77;95088.41;5064467;28;20067;-41
2020/12/16 02:13:27;;;;;;;41.70;30.52;;;;;;;16.94;34.05;95086.22;5077468;28;20052;-40
2020/12/16 02:15:57;;;;;;;39.25;29.55;;;;;;;16.94;33.94;95083.56;5060988;28;20053;-40
2020/12/16 02:18:26;;;;;;;43.47;30.65;;;;;;;16.59;34.85;95080.81;5114665;28;20047;-40
2020/12/16 02:20:59;;;;;;;43.78;30.60;;;;;;;16.67;34.73;95081.19;5080607;28;20048;-41
2020/12/16 02:23:27;;;;;;;43.35;30.30;;;;;;;16.83;34.53;95095.50;5064344;28;20048;-39
2020/12/16 02:25:58;;;;;;;45.58;30.17;;;;;;;16.52;35.02;95088.41;5064246;28;20055;-40
2020/12/16 02:28:25;;;;;;;47.78;30.60;;;;;;;16.34;35.26;95089.41;5064336;28;20355;-40
2020/12/16 02:30:52;;;;;;;41.42;30.13;;;;;;;16.41;35.38;95081.84;5097561;28;20054;-40
2020/12/16 02:33:34;;;;;;;45.50;30.23;;;;;;;16.40;35.11;95090.06;5098402;28;20111;-40
2020/12/16 02:36:09;;;;;;;45.95;29.60;;;;;;;16.42;35.24;95085.25;5079865;28;20051;-40
2020/12/16 02:38:55;;;;;;;42.72;28.98;;;;;;;16.40;35.22;95093.50;5077318;28;20048;-40
2020/12/16 02:41:31;;;;;;;41.67;29.52;;;;;;;16.40;35.23;95093.50;5060426;28;20048;-40
2020/12/16 02:43:59;;;;;;;41.08;28.63;;;;;;;16.44;35.16;95097.06;5060452;28;20052;-41
2020/12/16 02:46:27;;;;;;;42.75;29.23;;;;;;;16.50;35.13;95087.94;5063707;28;20044;-41
2020/12/16 02:48:55;;;;;;;36.65;25.70;;;;;;;16.68;34.25;95085.38;5080211;28;20047;-40
2020/12/16 02:51:22;;;;;;;34.95;24.65;;;;;;;17.26;33.26;95082.34;5080150;28;20048;-40
2020/12/16 02:53:49;;;;;;;34.38;24.33;;;;;;;16.73;33.66;95085.22;5079808;28;20048;-40
2020/12/16 02:56:24;;;;;;;33.92;23.15;;;;;;;17.48;32.49;95089.34;5079642;28;20063;-40
2020/12/16 02:58:59;;;;;;;34.67;23.27;;;;;;;16.88;33.13;95092.69;5080251;28;20055;-40
2020/12/16 03:01:27;;;;;;;28.88;21.15;;;;;;;16.69;33.84;95089.56;5080071;28;20044;-40
2020/12/16 03:04:06;;;;;;;31.27;21.13;;;;;;;17.19;32.40;95093.38;5079857;28;20473;-40
2020/12/16 03:07:02;;;;;;;31.42;21.77;;;;;;;17.51;32.04;95099.31;5079052;28;20058;-41
2020/12/16 03:09:34;;;;;;;34.40;24.05;;;;;;;17.21;32.54;95104.44;5080002;28;20051;-40
2020/12/16 03:12:01;;;;;;;34.17;22.15;;;;;;;16.52;33.72;95096.31;5079778;28;20054;-40
2020/12/16 03:14:38;;;;;;;36.03;23.88;;;;;;;16.45;34.13;95089.94;5079756;28;20043;-40
2020/12/16 03:17:06;;;;;;;33.40;23.08;;;;;;;16.23;34.63;95104.72;5079748;28;20043;-41
2020/12/16 03:19:39;;;;;;;37.75;23.58;;;;;;;16.23;34.70;95104.72;5080064;28;20074;-40
2020/12/16 03:22:06;;;;;;;33.08;21.85;;;;;;;16.32;34.50;95107.41;5079893;28;20359;-39
2020/12/16 03:24:48;;;;;;;32.50;21.90;;;;;;;16.46;34.11;95108.09;5079902;28;20358;-40
2020/12/16 03:27:37;;;;;;;35.22;22.88;;;;;;;16.68;33.64;95103.84;5096443;28;20043;-39
2020/12/16 03:30:22;;;;;;;37.60;23.35;;;;;;;16.42;34.23;95109.78;5097326;28;20052;-40
2020/12/16 03:32:57;;;;;;;35.15;21.17;;;;;;;16.50;34.25;95098.47;5079538;28;20051;-40
2020/12/16 03:35:35;;;;;;;34.70;22.17;;;;;;;16.13;34.60;95104.97;5079164;28;20052;-41
2020/12/16 03:38:05;;;;;;;33.03;21.40;;;;;;;16.45;34.32;95101.25;5079736;28;20052;-39
2020/12/16 03:40:34;;;;;;;36.35;22.13;;;;;;;16.78;33.51;95103.56;5079295;28;20044;-40
2020/12/16 03:43:04;;;;;;;33.63;22.70;;;;;;;16.49;34.35;95094.28;5075715;28;20048;-40
2020/12/16 03:45:31;;;;;;;32.30;21.48;;;;;;;15.98;35.38;95103.50;5058989;28;20060;-40
2020/12/16 03:48:00;;;;;;;34.70;21.80;;;;;;;15.98;35.38;95111.44;5107235;28;20047;-40
2020/12/16 03:50:28;;;;;;;31.00;21.35;;;;;;;15.93;35.40;95111.56;5079031;28;20048;-40
2020/12/16 03:52:56;;;;;;;30.63;20.42;;;;;;;16.06;35.25;95109.13;5078892;28;20048;-40
2020/12/16 03:55:41;;;;;;;32.35;20.25;;;;;;;15.88;35.61;95119.59;5096647;28;20040;-40
2020/12/16 03:58:28;;;;;;;28.02;19.83;;;;;;;17.08;33.39;95118.53;5065105;28;20455;-40
2020/12/16 04:01:16;;;;;;;28.35;19.70;;;;;;;16.71;33.76;95113.81;5078884;28;20052;-40
2020/12/16 04:03:45;;;;;;;27.60;18.50;;;;;;;17.32;32.40;95127.91;5075460;28;20044;-39
2020/12/16 04:06:22;;;;;;;26.90;17.75;;;;;;;16.57;33.76;95124.41;5059875;28;20052;-40
2020/12/16 04:08:50;;;;;;;26.88;18.85;;;;;;;16.45;34.07;95122.38;5078563;28;20394;-40
2020/12/16 04:11:40;;;;;;;25.23;18.00;;;;;;;16.61;33.73;95128.00;5085709;28;20048;-40
2020/12/16 04:14:23;;;;;;;28.25;19.70;;;;;;;16.02;35.10;95141.38;5075297;28;20466;-40
2020/12/16 04:16:54;;;;;;;28.08;18.80;;;;;;;16.56;33.74;95134.19;5058934;28;20044;-40
2020/12/16 04:19:21;;;;;;;26.67;18.48;;;;;;;16.50;33.95;95129.38;5076111;28;20067;-40
2020/12/16 04:21:56;;;;;;;26.63;17.85;;;;;;;16.18;34.60;95127.84;5074231;28;20068;-40
2020/12/16 04:24:27;;;;;;;30.45;18.48;;;;;;;16.27;34.72;95136.56;5075185;28;20049;-40
2020/12/16 04:27:06;;;;;;;29.17;18.33;;;;;;;16.00;35.20;95127.72;5074925;28;20363;-40
2020/12/16 04:29:33;;;;;;;26.92;17.17;;;;;;;15.76;35.39;95127.25;5074878;28;20375;-40
2020/12/16 04:32:01;;;;;;;25.05;16.85;;;;;;;15.62;35.61;95137.88;5091484;28;20051;-40
2020/12/16 04:34:36;;;;;;;26.95;17.73;;;;;;;15.88;35.21;95132.78;5091167;28;20071;-40
2020/12/16 04:37:03;;;;;;;25.70;16.88;;;;;;;16.15;34.35;95139.78;5079782;28;20466;-40
2020/12/16 04:39:33;;;;;;;19.98;14.77;;;;;;;15.60;35.51;95141.84;5077591;28;20043;-40
2020/12/16 04:42:02;;;;;;;22.60;15.43;;;;;;;16.08;34.78;95154.44;5078033;28;20044;-40
2020/12/16 04:44:30;;;;;;;23.60;15.48;;;;;;;15.99;34.82;95160.44;5077992;28;20446;-40
2020/12/16 04:47:05;;;;;;;23.08;16.17;;;;;;;16.07;34.74;95152.88;5061828;28;20055;-40
2020/12/16 04:49:39;;;;;;;20.30;13.77;;;;;;;17.34;32.29;95154.78;5062163;28;20052;-40
2020/12/16 04:52:07;;;;;;;22.80;15.40;;;;;;;16.43;33.94;95160.72;5061528;28;20052;-40
2020/12/16 04:54:49;;;;;;;21.25;15.35;;;;;;;16.27;34.40;95162.94;5077687;28;20044;-40
2020/12/16 04:57:23;;;;;;;24.52;15.65;;;;;;;15.93;34.93;95164.28;5077717;28;20051;-40
2020/12/16 04:59:59;;;;;;;22.50;14.93;;;;;;;15.79;35.10;95162.78;5077884;28;20047;-40
2020/12/16 05:02:58;;;;;;;20.40;14.23;;;;;;;16.44;34.02;95172.81;5094996;28;20332;-39
2020/12/16 05:05:45;;;;;;;18.98;12.73;;;;;;;17.88;30.97;95170.06;5094883;28;20060;-40
2020/12/16 05:08:14;;;;;;;20.25;14.02;;;;;;;16.55;33.13;95172.25;5095015;28;20052;-40
2020/12/16 05:10:47;;;;;;;19.73;13.40;;;;;;;17.14;32.47;95174.63;5095078;28;20051;-40
2020/12/16 05:13:17;;;;;;;22.08;14.18;;;;;;;17.22;31.86;95182.59;5094642;28;20052;-40
2020/12/16 05:15:46;;;;;;;22.02;14.43;;;;;;;16.53;33.33;95186.81;5095467;28;20355;-40
2020/12/16 05:18:21;;;;;;;20.08;13.73;;;;;;;16.01;34.31;95195.22;5094938;28;20055;-40
2020/12/16 05:20:52;;;;;;;19.25;13.57;;;;;;;15.86;34.65;95189.50;5095203;28;20059;-40
2020/12/16 05:23:28;;;;;;;18.02;12.80;;;;;;;15.70;34.80;95186.44;5095420;28;20040;-40
2020/12/16 05:25:59;;;;;;;15.95;11.05;;;;;;;15.66;34.68;95196.03;5095456;28;20040;-40
2020/12/16 05:28:29;;;;;;;16.00;10.88;;;;;;;15.92;34.41;95194.38;5095047;28;20058;-40
2020/12/16 05:30:56;;;;;;;15.23;10.65;;;;;;;15.85;34.49;95194.00;5094960;28;20122;-40
2020/12/16 05:33:23;;;;;;;14.50;10.88;;;;;;;15.95;34.28;95198.28;5094263;28;20051;-40
2020/12/16 05:35:52;;;;;;;16.45;11.35;;;;;;;15.87;34.03;95191.84;5094619;28;20048;-40
2020/12/16 05:38:19;;;;;;;15.98;11.13;;;;;;;16.18;33.60;95196.41;5094784;28;20052;-40
2020/12/16 05:40:47;;;;;;;18.15;11.65;;;;;;;15.96;33.84;95211.16;5094999;28;20044;-41
2020/12/16 05:43:28;;;;;;;15.35;11.18;;;;;;;15.77;34.29;95205.25;5095041;28;20052;-40
2020/12/16 05:45:55;;;;;;;17.58;11.88;;;;;;;15.81;34.32;95213.34;5095161;28;20044;-42
2020/12/16 05:48:28;;;;;;;15.40;10.68;;;;;;;14.98;35.94;95207.41;5095053;28;20447;-40
2020/12/16 05:50:57;;;;;;;18.33;11.93;;;;;;;14.84;36.58;95211.91;5095048;28;20052;-40
2020/12/16 05:53:26;;;;;;;19.27;12.93;;;;;;;14.89;36.22;95204.69;5095147;28;20044;-40
2020/12/16 05:55:54;;;;;;;17.92;12.15;;;;;;;14.90;36.56;95210.75;5094940;28;20056;-44
2020/12/16 05:58:24;;;;;;;23.15;12.82;;;;;;;15.25;35.85;95202.13;5094493;28;20052;-40
2020/12/16 06:01:00;;;;;;;17.30;11.52;;;;;;;14.97;35.91;95213.75;5094525;28;20066;-41
2020/12/16 06:03:36;;;;;;;19.08;11.90;;;;;;;14.45;37.36;95206.00;5095082;28;20044;-40
2020/12/16 06:06:10;;;;;;;16.73;11.52;;;;;;;14.55;37.02;95215.56;5094681;28;20050;-40
2020/12/16 06:08:39;;;;;;;17.80;11.43;;;;;;;15.21;35.63;95216.19;5094306;28;20439;-40
2020/12/16 06:11:11;;;;;;;17.90;11.32;;;;;;;14.80;36.47;95215.09;5095083;28;20052;-41
2020/12/16 06:13:43;;;;;;;15.93;11.13;;;;;;;14.75;36.88;95223.09;5094939;28;20056;-40
2020/12/16 06:16:10;;;;;;;16.27;10.48;;;;;;;14.48;37.13;95223.06;5094771;28;20048;-40
2020/12/16 06:18:39;;;;;;;18.15;11.07;;;;;;;15.24;35.66;95240.06;5094545;28;20051;-40
2020/12/16 06:21:08;;;;;;;15.70;10.27;;;;;;;15.15;35.64;95239.22;5094836;28;20075;-40
2020/12/16 06:23:36;;;;;;;17.70;10.75;;;;;;;15.02;36.05;95232.09;5094822;28;20052;-40
2020/12/16 06:26:06;;;;;;;14.57;10.23;;;;;;;14.87;36.17;95237.66;5094722;28;20434;-40
2020/12/16 06:28:34;;;;;;;15.43;10.52;;;;;;;14.64;36.94;95242.78;5095239;28;20048;-40
2020/12/16 06:31:31;;;;;;;15.52;10.85;;;;;;;14.97;36.50;95237.44;5098343;28;20478;-40
2020/12/16 06:34:10;;;;;;;16.45;12.05;;;;;;;14.73;37.04;95243.66;5098325;28;20169;-40
2020/12/16 06:36:42;;;;;;;17.33;11.45;;;;;;;14.50;37.23;95234.84;5097938;28;20040;-39
2020/12/16 06:39:23;;;;;;;18.42;10.95;;;;;;;14.63;36.86;95243.84;5098060;28;20046;-40
2020/12/16 06:41:56;;;;;;;15.85;11.00;;;;;;;14.66;36.93;95240.63;5098402;28;20051;-40
2020/12/16 06:44:25;;;;;;;17.98;12.40;;;;;;;14.66;36.95;95243.28;5098161;28;20374;-40
2020/12/16 06:46:56;;;;;;;32.67;21.90;;;;;;;15.00;35.89;95237.63;5097454;28;20048;-41
2020/12/16 06:49:23;;;;;;;37.00;24.35;;;;;;;15.70;34.32;95239.16;5098224;28;20446;-40
2020/12/16 06:51:53;;;;;;;40.45;28.75;;;;;;;16.08;33.63;95244.13;5097967;28;20063;-40
2020/12/16 06:54:22;;;;;;;30.10;21.10;;;;;;;16.19;32.79;95237.53;5077889;28;20055;-40
2020/12/16 06:56:50;;;;;;;20.38;14.43;;;;;;;15.79;33.17;95242.66;5088423;28;20048;-40
2020/12/16 06:59:43;;;;;;;24.02;15.98;;;;;;;12.90;39.52;95250.66;5098304;28;20047;-40
2020/12/16 07:02:25;;;;;;;22.15;14.45;;;;;;;12.16;41.41;95252.66;5098249;28;20370;-40
2020/12/16 07:04:53;;;;;;;20.30;13.38;;;;;;;13.90;37.93;95254.97;5097505;28;20048;-41
2020/12/16 07:07:42;;;;;;;19.17;12.57;;;;;;;14.62;35.97;95255.44;5097105;28;20458;-40
2020/12/16 07:10:33;;;;;;;19.88;13.48;;;;;;;14.90;35.52;95250.22;5097778;28;20052;-40
2020/12/16 07:13:15;;;;;;;19.73;13.25;;;;;;;15.21;35.19;95243.31;5097664;28;20047;-40
2020/12/16 07:15:51;;;;;;;20.20;13.55;;;;;;;15.54;34.83;95256.34;5097831;28;20047;-40
2020/12/16 07:18:20;;;;;;;20.30;13.52;;;;;;;15.34;35.21;95242.50;5097283;28;20040;-40
2020/12/16 07:20:48;;;;;;;18.75;13.48;;;;;;;15.43;35.24;95248.66;5097321;28;20052;-40
2020/12/16 07:23:15;;;;;;;20.50;14.48;;;;;;;15.65;34.88;95253.25;5097347;28;20050;-39
2020/12/16 07:25:45;;;;;;;20.80;14.02;;;;;;;15.40;35.06;95251.88;5097380;28;20052;-40
2020/12/16 07:28:13;;;;;;;21.27;14.50;;;;;;;15.65;34.61;95253.25;5097198;28;20063;-40
2020/12/16 07:30:50;;;;;;;20.52;14.45;;;;;;;15.61;34.78;95254.09;5097213;28;20118;-40
2020/12/16 07:33:18;;;;;;;25.17;15.85;;;;;;;15.56;34.70;95254.97;5097275;28;20044;-40
2020/12/16 07:35:47;;;;;;;24.55;16.00;;;;;;;15.86;34.33;95253.56;5097157;28;20047;-40
2020/12/16 07:38:15;;;;;;;24.17;15.90;;;;;;;15.80;34.89;95254.75;5096562;28;20054;-40
2020/12/16 07:40:51;;;;;;;22.75;16.15;;;;;;;15.68;34.67;95262.41;5097113;28;20044;-40
2020/12/16 07:43:22;;;;;;;22.88;16.13;;;;;;;15.58;34.75;95267.84;5097143;28;20052;-40
2020/12/16 07:46:07;;;;;;;20.27;14.40;;;;;;;15.92;34.34;95268.22;5096818;28;20052;-40
2020/12/16 07:48:35;;;;;;;20.13;14.57;;;;;;;16.14;33.98;95261.41;5096644;28;20063;-40
2020/12/16 07:51:06;;;;;;;22.75;16.38;;;;;;;15.77;34.34;95265.91;5096832;28;20052;-40
2020/12/16 07:53:34;;;;;;;21.95;16.15;;;;;;;15.57;34.76;95261.00;5096825;28;20043;-40
2020/12/16 07:56:03;;;;;;;26.25;17.92;;;;;;;15.62;34.76;95274.13;5096702;28;20047;-40
2020/12/16 07:58:31;;;;;;;23.15;16.40;;;;;;;15.81;34.53;95264.22;5096577;28;20054;-40
2020/12/16 08:01:15;;;;;;;20.75;14.90;;;;;;;15.90;34.39;95270.38;5096653;28;20056;-41
2020/12/16 08:03:43;;;;;;;20.45;14.02;;;;;;;15.88;34.54;95272.53;5096724;28;20478;-41
2020/12/16 08:06:11;;;;;;;20.90;14.90;;;;;;;15.62;34.89;95272.28;5096195;28;20363;-40
2020/12/16 08:08:51;;;;;;;21.48;14.40;;;;;;;15.63;34.74;95265.16;5096153;28;20054;-40
2020/12/16 08:11:21;;;;;;;21.70;15.60;;;;;;;15.39;35.09;95263.50;5096480;28;20453;-40
2020/12/16 08:13:49;;;;;;;19.98;14.57;;;;;;;15.85;34.57;95267.03;5096585;28;20050;-40
2020/12/16 08:16:16;;;;;;;20.35;14.23;;;;;;;15.51;35.24;95278.00;5096350;28;20048;-40
2020/12/16 08:18:46;;;;;;;20.35;15.63;;;;;;;15.61;34.95;95281.28;5096030;28;20048;-40
2020/12/16 08:21:21;;;;;;;21.42;15.52;;;;;;;15.54;34.99;95267.66;5096515;28;20075;-40
2020/12/16 08:23:49;;;;;;;21.55;15.40;;;;;;;15.68;34.57;95275.59;5096603;28;20048;-40
2020/12/16 08:26:19;;;;;;;19.98;14.40;;;;;;;15.84;34.29;95273.38;5096057;28;20363;-40
2020/12/16 08:28:47;;;;;;;18.90;14.50;;;;;;;15.60;34.89;95284.16;5095789;28;20055;-40
2020/12/16 08:31:20;;;;;;;20.15;14.50;;;;;;;15.61;34.93;95277.81;5096394;28;20060;-40
2020/12/16 08:33:49;;;;;;;20.88;16.02;;;;;;;15.80;34.65;95278.47;5096087;28;20446;-40
2020/12/16 08:36:22;;;;;;;19.38;15.20;;;;;;;15.97;34.33;95273.38;5095582;28;20044;-40
2020/12/16 08:38:50;;;;;;;23.55;17.85;;;;;;;15.89;34.45;95276.72;5084406;28;20055;-41
2020/12/16 08:41:28;;;;;;;21.73;16.52;;;;;;;15.95;34.31;95278.16;5095974;28;20048;-40
2020/12/16 08:43:56;;;;;;;21.10;15.90;;;;;;;15.93;34.58;95275.03;5095931;28;20054;-40
2020/12/16 08:46:25;;;;;;;23.20;17.00;;;;;;;15.72;34.55;95273.91;5095787;28;20056;-41
2020/12/16 08:48:52;;;;;;;24.83;17.90;;;;;;;15.82;34.61;95272.91;5095550;28;20052;-40
2020/12/16 08:51:40;;;;;;;25.67;17.52;;;;;;;16.03;34.27;95266.91;5095506;28;20063;-40
2020/12/16 08:54:12;;;;;;;21.92;16.38;;;;;;;15.85;34.32;95265.19;5095795;28;20044;-40
2020/12/16 08:56:49;;;;;;;21.85;17.40;;;;;;;15.79;34.50;95265.59;5077752;28;20046;-40
2020/12/16 08:59:30;;;;;;;27.27;18.27;;;;;;;15.62;34.37;95268.88;5095399;28;20059;-41
2020/12/16 09:02:03;;;;;;;23.45;18.25;;;;;;;15.92;34.27;95248.97;5095943;28;20048;-41
2020/12/16 09:04:32;;;;;;;23.33;18.33;;;;;;;16.19;33.67;95258.66;5095434;28;20047;-41
2020/12/16 09:07:11;;;;;;;23.70;18.08;;;;;;;15.95;34.40;95256.28;5095265;28;20048;-40
2020/12/16 09:09:40;;;;;;;22.75;17.60;;;;;;;15.73;34.57;95254.38;5095197;28;20169;-41
2020/12/16 09:12:15;;;;;;;23.95;17.98;;;;;;;15.87;34.10;95252.47;5095532;28;20055;-40
2020/12/16 09:14:59;;;;;;;22.85;17.63;;;;;;;15.77;34.63;95250.06;5095468;28;20469;-40
2020/12/16 09:17:29;;;;;;;21.38;16.80;;;;;;;15.98;34.25;95248.56;5095160;28;20324;-40
2020/12/16 09:19:57;;;;;;;21.83;17.63;;;;;;;15.95;34.27;95251.78;5095527;28;20048;-40
2020/12/16 09:22:28;;;;;;;21.85;16.40;;;;;;;16.31;33.21;95245.69;5095505;28;20059;-40
2020/12/16 09:24:57;;;;;;;21.52;16.70;;;;;;;16.23;33.24;95243.78;5095092;28;20059;-40
2020/12/16 09:27:24;;;;;;;20.85;17.10;;;;;;;16.13;33.73;95246.63;5095112;28;20469;-40
2020/12/16 09:29:51;;;;;;;21.60;17.88;;;;;;;16.07;33.61;95242.56;5095280;28;20047;-40
2020/12/16 09:32:20;;;;;;;25.27;19.30;;;;;;;16.10;33.83;95236.69;5095445;28;20040;-41
2020/12/16 09:34:49;;;;;;;24.25;19.90;;;;;;;16.04;33.64;95238.66;5095038;28;20048;-41
2020/12/16 09:37:18;;;;;;;25.55;20.08;;;;;;;16.51;32.82;95237.28;5095016;28;20052;-41
2020/12/16 09:39:47;;;;;;;25.00;20.60;;;;;;;16.18;33.13;95238.63;5094855;28;20051;-40
2020/12/16 09:42:16;;;;;;;26.90;20.42;;;;;;;16.52;32.67;95230.91;5095132;28;20051;-40
2020/12/16 09:44:46;;;;;;;27.55;20.65;;;;;;;16.25;33.39;95233.69;5095069;28;20055;-40
2020/12/16 09:47:22;;;;;;;23.27;18.65;;;;;;;16.72;32.37;95227.03;5095201;28;20070;-41
2020/12/16 09:50:01;;;;;;;24.75;20.02;;;;;;;16.39;33.10;95228.34;5094920;28;20343;-40
2020/12/16 09:52:32;;;;;;;25.40;20.70;;;;;;;16.17;33.75;95235.22;5095146;28;20044;-40
2020/12/16 09:55:17;;;;;;;22.98;19.55;;;;;;;15.85;33.91;95230.13;5094866;28;20058;-40
2020/12/16 09:57:44;;;;;;;26.08;20.70;;;;;;;16.12;33.74;95237.94;5094992;28;20059;-41
2020/12/16 10:00:13;;;;;;;27.33;21.30;;;;;;;16.69;32.98;95227.63;5095211;28;20047;-40
2020/12/16 10:02:40;;;;;;;24.55;21.58;;;;;;;16.41;33.46;95236.75;5095195;28;20336;-40
2020/12/16 10:05:07;;;;;;;26.33;23.35;;;;;;;16.33;33.24;95235.59;5098060;28;20082;-40
2020/12/16 10:07:34;;;;;;;29.65;25.52;;;;;;;16.99;32.08;95222.63;5098199;28;20052;-40
2020/12/16 10:10:02;;;;;;;28.83;24.60;;;;;;;16.41;32.60;95229.63;5098895;28;20051;-40
2020/12/16 10:12:29;;;;;;;28.38;24.77;;;;;;;16.50;32.99;95219.09;5098896;28;20044;-41
2020/12/16 10:14:56;;;;;;;32.20;25.13;;;;;;;16.63;33.95;95219.00;5098628;28;20386;-40
2020/12/16 10:17:24;;;;;;;31.08;24.70;;;;;;;16.55;33.60;95222.38;5098840;28;20052;-40
2020/12/16 10:19:54;;;;;;;32.22;23.73;;;;;;;16.37;34.60;95212.81;5098491;28;20047;-41
2020/12/16 10:22:21;;;;;;;27.50;23.33;;;;;;;16.70;33.21;95212.56;5098420;28;20060;-40
2020/12/16 10:24:48;;;;;;;30.25;24.30;;;;;;;16.88;33.56;95208.91;5098311;28;20051;-40
2020/12/16 10:27:17;;;;;;;35.17;29.00;;;;;;;16.69;33.47;95206.50;5098586;28;20048;-40
2020/12/16 10:29:44;;;;;;;42.22;35.25;;;;;;;16.36;33.81;95203.34;5098152;28;20044;-41
2020/12/16 10:32:11;;;;;;;45.88;36.63;;;;;;;16.24;34.17;95211.03;5098633;28;20048;-41
2020/12/16 10:34:38;;;;;;;44.03;35.95;;;;;;;16.27;33.87;95202.50;5098219;28;20044;-40
2020/12/16 10:37:06;;;;;;;44.00;36.63;;;;;;;16.04;34.31;95202.53;5098256;28;20439;-41
2020/12/16 10:39:33;;;;;;;44.58;34.47;;;;;;;16.09;34.16;95200.84;5098113;28;20051;-41
2020/12/16 10:42:00;;;;;;;41.95;35.10;;;;;;;16.12;33.99;95203.66;5098256;28;20044;-40
2020/12/16 10:44:27;;;;;;;41.78;36.00;;;;;;;16.17;34.28;95194.84;5098179;28;20055;-41
2020/12/16 10:46:55;;;;;;;47.72;36.85;;;;;;;16.16;34.41;95188.03;5098070;28;20071;-40
2020/12/16 10:49:24;;;;;;;42.92;36.15;;;;;;;16.19;34.07;95190.06;5098098;28;20044;-40
2020/12/16 10:51:52;;;;;;;43.65;38.15;;;;;;;16.25;33.90;95181.72;5098111;28;20384;-40
2020/12/16 10:54:20;;;;;;;43.15;36.33;;;;;;;16.27;34.26;95184.03;5097938;28;20051;-40
2020/12/16 10:56:56;;;;;;;38.58;34.30;;;;;;;16.39;34.00;95181.63;5097935;28;20048;-40
2020/12/16 10:59:23;;;;;;;39.85;33.38;;;;;;;16.13;34.11;95184.09;5097933;28;20046;-40
2020/12/16 11:01:51;;;;;;;43.20;36.00;;;;;;;16.24;33.96;95174.88;5097893;28;20039;-40
2020/12/16 11:04:18;;;;;;;42.95;34.72;;;;;;;16.35;34.43;95176.16;5097701;28;20069;-41
2020/12/16 11:06:47;;;;;;;38.88;32.95;;;;;;;16.26;33.74;95182.50;5097152;28;20242;-40
2020/12/16 11:09:18;;;;;;;39.17;32.28;;;;;;;16.44;33.98;95175.47;5097599;28;20055;-40
2020/12/16 11:11:46;;;;;;;38.33;32.40;;;;;;;16.60;33.50;95180.03;5097769;28;20055;-40
2020/12/16 11:14:14;;;;;;;36.70;32.35;;;;;;;16.49;33.96;95180.59;5097058;28;20044;-40
2020/12/16 11:16:42;;;;;;;40.58;31.80;;;;;;;16.53;33.88;95171.00;5097551;28;20048;-41
2020/12/16 11:19:11;;;;;;;38.75;31.73;;;;;;;16.68;33.59;95170.63;5097324;28;20469;-41
2020/12/16 11:21:43;;;;;;;43.00;32.95;;;;;;;16.56;34.13;95171.16;5097472;28;20387;-40
2020/12/16 11:24:12;;;;;;;41.00;34.15;;;;;;;16.60;33.53;95166.81;5096107;28;20059;-39
2020/12/16 11:26:41;;;;;;;47.25;38.65;;;;;;;16.79;33.31;95165.84;5096620;28;20059;-40
2020/12/16 11:29:09;;;;;;;46.35;37.45;;;;;;;16.84;33.60;95166.47;5097158;28;20079;-40
2020/12/16 11:31:41;;;;;;;49.10;39.03;;;;;;;16.55;34.21;95164.31;5097358;28;20048;-40
2020/12/16 11:34:08;;;;;;;52.53;39.95;;;;;;;16.52;34.50;95164.94;5097121;28;20051;-40
2020/12/16 11:36:38;;;;;;;45.78;36.03;;;;;;;16.39;34.11;95160.50;5096917;28;20481;-40